sensor_id;sensor_type;location;lat;lon;timestamp;P1;durP1;ratioP1;P2;durP2;ratioP2
19016;SDS011;9641;51.494;6.670;2022-11-20T00:00:38;20.83;;;12.13;;
19016;SDS011;9641;51.494;6.670;2022-11-20T00:03:04;22.90;;;12.47;;
19016;SDS011;9641;51.494;6.670;2022-11-20T00:05:33;23.17;;;12.17;;
19016;SDS011;9641;51.494;6.670;2022-11-20T00:08:00;24.40;;;12.43;;
19016;SDS011;9641;51.494;6.670;2022-11-20T00:10:26;21.97;;;11.77;;
19016;SDS011;9641;51.494;6.670;2022-11-20T00:12:53;20.60;;;11.60;;
19016;SDS011;9641;51.494;6.670;2022-11-20T00:15:20;21.03;;;12.77;;
19016;SDS011;9641;51.494;6.670;2022-11-20T00:17:46;24.50;;;12.67;;
19016;SDS011;9641;51.494;6.670;2022-11-20T00:20:13;30.10;;;13.47;;
19016;SDS011;9641;51.494;6.670;2022-11-20T00:22:42;20.90;;;11.30;;
19016;SDS011;9641;51.494;6.670;2022-11-20T00:25:09;21.60;;;11.57;;
19016;SDS011;9641;51.494;6.670;2022-11-20T00:27:36;22.90;;;12.30;;
19016;SDS011;9641;51.494;6.670;2022-11-20T00:30:04;27.83;;;13.70;;
19016;SDS011;9641;51.494;6.670;2022-11-20T00:32:32;24.60;;;12.37;;
19016;SDS011;9641;51.494;6.670;2022-11-20T00:34:59;20.73;;;12.20;;
19016;SDS011;9641;51.494;6.670;2022-11-20T00:37:26;26.77;;;14.17;;
19016;SDS011;9641;51.494;6.670;2022-11-20T00:39:55;27.03;;;13.47;;
19016;SDS011;9641;51.494;6.670;2022-11-20T00:42:21;30.70;;;13.27;;
19016;SDS011;9641;51.494;6.670;2022-11-20T00:44:48;26.30;;;14.53;;
19016;SDS011;9641;51.494;6.670;2022-11-20T00:47:15;29.83;;;13.93;;
19016;SDS011;9641;51.494;6.670;2022-11-20T00:49:42;25.63;;;13.47;;
19016;SDS011;9641;51.494;6.670;2022-11-20T00:52:09;27.80;;;14.03;;
19016;SDS011;9641;51.494;6.670;2022-11-20T00:54:35;27.67;;;14.40;;
19016;SDS011;9641;51.494;6.670;2022-11-20T00:57:03;31.03;;;16.17;;
19016;SDS011;9641;51.494;6.670;2022-11-20T00:59:30;35.40;;;16.80;;
19016;SDS011;9641;51.494;6.670;2022-11-20T01:01:57;31.10;;;17.20;;
19016;SDS011;9641;51.494;6.670;2022-11-20T01:04:24;35.57;;;16.60;;
19016;SDS011;9641;51.494;6.670;2022-11-20T01:06:50;37.70;;;17.70;;
19016;SDS011;9641;51.494;6.670;2022-11-20T01:09:17;37.73;;;18.13;;
19016;SDS011;9641;51.494;6.670;2022-11-20T01:11:44;35.20;;;16.07;;
19016;SDS011;9641;51.494;6.670;2022-11-20T01:14:13;31.67;;;15.33;;
19016;SDS011;9641;51.494;6.670;2022-11-20T01:16:42;25.73;;;14.30;;
19016;SDS011;9641;51.494;6.670;2022-11-20T01:19:11;23.97;;;14.00;;
19016;SDS011;9641;51.494;6.670;2022-11-20T01:21:40;28.37;;;14.10;;
19016;SDS011;9641;51.494;6.670;2022-11-20T01:24:08;28.07;;;15.80;;
19016;SDS011;9641;51.494;6.670;2022-11-20T01:26:38;30.47;;;15.33;;
19016;SDS011;9641;51.494;6.670;2022-11-20T01:29:06;29.53;;;14.17;;
19016;SDS011;9641;51.494;6.670;2022-11-20T01:31:36;29.13;;;14.90;;
19016;SDS011;9641;51.494;6.670;2022-11-20T01:34:04;29.43;;;14.30;;
19016;SDS011;9641;51.494;6.670;2022-11-20T01:36:32;28.93;;;14.07;;
19016;SDS011;9641;51.494;6.670;2022-11-20T01:39:02;23.87;;;14.17;;
19016;SDS011;9641;51.494;6.670;2022-11-20T01:41:30;29.07;;;14.03;;
19016;SDS011;9641;51.494;6.670;2022-11-20T01:44:17;28.40;;;14.70;;
19016;SDS011;9641;51.494;6.670;2022-11-20T01:46:50;29.07;;;14.30;;
19016;SDS011;9641;51.494;6.670;2022-11-20T01:49:21;29.47;;;14.57;;
19016;SDS011;9641;51.494;6.670;2022-11-20T01:51:53;31.57;;;15.70;;
19016;SDS011;9641;51.494;6.670;2022-11-20T01:54:23;32.57;;;16.27;;
19016;SDS011;9641;51.494;6.670;2022-11-20T01:56:54;26.27;;;15.27;;
19016;SDS011;9641;51.494;6.670;2022-11-20T01:59:23;29.53;;;16.13;;
19016;SDS011;9641;51.494;6.670;2022-11-20T02:01:53;30.17;;;15.33;;
19016;SDS011;9641;51.494;6.670;2022-11-20T02:04:21;28.57;;;16.00;;
19016;SDS011;9641;51.494;6.670;2022-11-20T02:06:49;32.50;;;16.17;;
19016;SDS011;9641;51.494;6.670;2022-11-20T02:09:19;30.97;;;17.43;;
19016;SDS011;9641;51.494;6.670;2022-11-20T02:11:46;34.30;;;17.90;;
19016;SDS011;9641;51.494;6.670;2022-11-20T02:14:13;35.30;;;17.97;;
19016;SDS011;9641;51.494;6.670;2022-11-20T02:16:40;31.30;;;17.10;;
19016;SDS011;9641;51.494;6.670;2022-11-20T02:19:14;30.00;;;17.00;;
19016;SDS011;9641;51.494;6.670;2022-11-20T02:21:49;30.47;;;16.77;;
19016;SDS011;9641;51.494;6.670;2022-11-20T02:24:24;30.00;;;17.27;;
19016;SDS011;9641;51.494;6.670;2022-11-20T02:26:51;34.77;;;18.57;;
19016;SDS011;9641;51.494;6.670;2022-11-20T02:29:23;42.83;;;18.53;;
19016;SDS011;9641;51.494;6.670;2022-11-20T02:31:52;42.50;;;19.07;;
19016;SDS011;9641;51.494;6.670;2022-11-20T02:34:21;35.47;;;17.60;;
19016;SDS011;9641;51.494;6.670;2022-11-20T02:36:48;31.73;;;16.83;;
19016;SDS011;9641;51.494;6.670;2022-11-20T02:39:18;35.57;;;18.87;;
19016;SDS011;9641;51.494;6.670;2022-11-20T02:41:48;29.57;;;16.57;;
19016;SDS011;9641;51.494;6.670;2022-11-20T02:44:14;28.60;;;16.47;;
19016;SDS011;9641;51.494;6.670;2022-11-20T02:46:41;29.90;;;17.43;;
19016;SDS011;9641;51.494;6.670;2022-11-20T02:49:08;39.17;;;17.57;;
19016;SDS011;9641;51.494;6.670;2022-11-20T02:51:35;27.60;;;16.10;;
19016;SDS011;9641;51.494;6.670;2022-11-20T02:54:01;35.90;;;18.30;;
19016;SDS011;9641;51.494;6.670;2022-11-20T02:56:29;31.80;;;17.70;;
19016;SDS011;9641;51.494;6.670;2022-11-20T02:58:57;31.37;;;16.77;;
19016;SDS011;9641;51.494;6.670;2022-11-20T03:01:24;29.30;;;17.17;;
19016;SDS011;9641;51.494;6.670;2022-11-20T03:03:51;31.23;;;17.23;;
19016;SDS011;9641;51.494;6.670;2022-11-20T03:06:19;28.60;;;16.33;;
19016;SDS011;9641;51.494;6.670;2022-11-20T03:08:46;26.03;;;15.67;;
19016;SDS011;9641;51.494;6.670;2022-11-20T03:11:13;26.00;;;14.83;;
19016;SDS011;9641;51.494;6.670;2022-11-20T03:13:39;34.60;;;15.47;;
19016;SDS011;9641;51.494;6.670;2022-11-20T03:16:11;28.83;;;15.73;;
19016;SDS011;9641;51.494;6.670;2022-11-20T03:18:40;29.47;;;14.93;;
19016;SDS011;9641;51.494;6.670;2022-11-20T03:21:07;26.50;;;14.53;;
19016;SDS011;9641;51.494;6.670;2022-11-20T03:23:35;27.73;;;16.00;;
19016;SDS011;9641;51.494;6.670;2022-11-20T03:26:09;30.20;;;15.37;;
19016;SDS011;9641;51.494;6.670;2022-11-20T03:28:37;27.07;;;14.87;;
19016;SDS011;9641;51.494;6.670;2022-11-20T03:31:07;33.17;;;16.40;;
19016;SDS011;9641;51.494;6.670;2022-11-20T03:33:36;32.30;;;16.53;;
19016;SDS011;9641;51.494;6.670;2022-11-20T03:36:04;32.87;;;15.53;;
19016;SDS011;9641;51.494;6.670;2022-11-20T03:38:33;28.93;;;15.20;;
19016;SDS011;9641;51.494;6.670;2022-11-20T03:41:00;28.20;;;15.70;;
19016;SDS011;9641;51.494;6.670;2022-11-20T03:43:27;27.90;;;14.63;;
19016;SDS011;9641;51.494;6.670;2022-11-20T03:45:54;27.73;;;15.27;;
19016;SDS011;9641;51.494;6.670;2022-11-20T03:48:21;29.13;;;15.27;;
19016;SDS011;9641;51.494;6.670;2022-11-20T03:50:49;25.67;;;14.33;;
19016;SDS011;9641;51.494;6.670;2022-11-20T03:53:16;32.13;;;15.80;;
19016;SDS011;9641;51.494;6.670;2022-11-20T03:55:43;28.17;;;15.33;;
19016;SDS011;9641;51.494;6.670;2022-11-20T03:58:10;27.97;;;14.37;;
19016;SDS011;9641;51.494;6.670;2022-11-20T04:00:38;30.17;;;15.73;;
19016;SDS011;9641;51.494;6.670;2022-11-20T04:03:05;25.43;;;13.73;;
19016;SDS011;9641;51.494;6.670;2022-11-20T04:05:32;24.93;;;13.50;;
19016;SDS011;9641;51.494;6.670;2022-11-20T04:08:00;29.67;;;14.47;;
19016;SDS011;9641;51.494;6.670;2022-11-20T04:10:27;25.70;;;15.00;;
19016;SDS011;9641;51.494;6.670;2022-11-20T04:12:54;25.47;;;13.80;;
19016;SDS011;9641;51.494;6.670;2022-11-20T04:15:21;22.37;;;13.47;;
19016;SDS011;9641;51.494;6.670;2022-11-20T04:17:48;24.47;;;14.03;;
19016;SDS011;9641;51.494;6.670;2022-11-20T04:20:14;25.03;;;13.33;;
19016;SDS011;9641;51.494;6.670;2022-11-20T04:22:41;24.90;;;14.60;;
19016;SDS011;9641;51.494;6.670;2022-11-20T04:25:09;26.53;;;14.17;;
19016;SDS011;9641;51.494;6.670;2022-11-20T04:27:36;26.70;;;14.20;;
19016;SDS011;9641;51.494;6.670;2022-11-20T04:30:03;24.70;;;14.13;;
19016;SDS011;9641;51.494;6.670;2022-11-20T04:32:30;27.27;;;13.27;;
19016;SDS011;9641;51.494;6.670;2022-11-20T04:34:57;23.77;;;13.10;;
19016;SDS011;9641;51.494;6.670;2022-11-20T04:37:24;23.07;;;13.57;;
19016;SDS011;9641;51.494;6.670;2022-11-20T04:39:51;28.20;;;15.53;;
19016;SDS011;9641;51.494;6.670;2022-11-20T04:42:19;22.43;;;13.83;;
19016;SDS011;9641;51.494;6.670;2022-11-20T04:44:55;27.93;;;14.80;;
19016;SDS011;9641;51.494;6.670;2022-11-20T04:47:21;25.60;;;14.73;;
19016;SDS011;9641;51.494;6.670;2022-11-20T04:49:48;32.13;;;16.10;;
19016;SDS011;9641;51.494;6.670;2022-11-20T04:52:15;25.40;;;12.77;;
19016;SDS011;9641;51.494;6.670;2022-11-20T04:54:42;23.97;;;13.60;;
19016;SDS011;9641;51.494;6.670;2022-11-20T04:57:09;34.80;;;15.20;;
19016;SDS011;9641;51.494;6.670;2022-11-20T04:59:37;29.43;;;14.63;;
19016;SDS011;9641;51.494;6.670;2022-11-20T05:02:03;23.83;;;13.80;;
19016;SDS011;9641;51.494;6.670;2022-11-20T05:04:30;24.77;;;13.30;;
19016;SDS011;9641;51.494;6.670;2022-11-20T05:06:57;24.60;;;13.60;;
19016;SDS011;9641;51.494;6.670;2022-11-20T05:09:24;24.53;;;13.33;;
19016;SDS011;9641;51.494;6.670;2022-11-20T05:11:50;24.10;;;12.60;;
19016;SDS011;9641;51.494;6.670;2022-11-20T05:14:17;25.17;;;13.87;;
19016;SDS011;9641;51.494;6.670;2022-11-20T05:16:45;27.57;;;13.40;;
19016;SDS011;9641;51.494;6.670;2022-11-20T05:19:12;25.87;;;12.83;;
19016;SDS011;9641;51.494;6.670;2022-11-20T05:21:39;26.67;;;14.27;;
19016;SDS011;9641;51.494;6.670;2022-11-20T05:24:06;25.00;;;14.27;;
19016;SDS011;9641;51.494;6.670;2022-11-20T05:26:32;24.60;;;13.60;;
19016;SDS011;9641;51.494;6.670;2022-11-20T05:28:59;22.97;;;13.30;;
19016;SDS011;9641;51.494;6.670;2022-11-20T05:31:27;25.63;;;12.83;;
19016;SDS011;9641;51.494;6.670;2022-11-20T05:33:55;25.40;;;13.37;;
19016;SDS011;9641;51.494;6.670;2022-11-20T05:36:23;29.67;;;13.37;;
19016;SDS011;9641;51.494;6.670;2022-11-20T05:38:50;24.70;;;13.27;;
19016;SDS011;9641;51.494;6.670;2022-11-20T05:41:17;30.47;;;13.70;;
19016;SDS011;9641;51.494;6.670;2022-11-20T05:43:46;27.37;;;14.37;;
19016;SDS011;9641;51.494;6.670;2022-11-20T05:46:14;23.13;;;14.17;;
19016;SDS011;9641;51.494;6.670;2022-11-20T05:48:43;26.40;;;15.60;;
19016;SDS011;9641;51.494;6.670;2022-11-20T05:51:13;26.90;;;14.37;;
19016;SDS011;9641;51.494;6.670;2022-11-20T05:53:42;31.17;;;15.93;;
19016;SDS011;9641;51.494;6.670;2022-11-20T05:56:11;27.27;;;13.90;;
19016;SDS011;9641;51.494;6.670;2022-11-20T05:58:39;32.63;;;15.07;;
19016;SDS011;9641;51.494;6.670;2022-11-20T06:01:06;31.53;;;15.53;;
19016;SDS011;9641;51.494;6.670;2022-11-20T06:03:35;28.23;;;14.90;;
19016;SDS011;9641;51.494;6.670;2022-11-20T06:06:03;26.63;;;14.13;;
19016;SDS011;9641;51.494;6.670;2022-11-20T06:08:33;28.10;;;14.30;;
19016;SDS011;9641;51.494;6.670;2022-11-20T06:11:02;26.17;;;14.37;;
19016;SDS011;9641;51.494;6.670;2022-11-20T06:13:30;28.27;;;14.80;;
19016;SDS011;9641;51.494;6.670;2022-11-20T06:15:57;26.83;;;13.53;;
19016;SDS011;9641;51.494;6.670;2022-11-20T06:18:25;25.47;;;13.67;;
19016;SDS011;9641;51.494;6.670;2022-11-20T06:20:58;28.93;;;15.00;;
19016;SDS011;9641;51.494;6.670;2022-11-20T06:23:27;31.87;;;14.53;;
19016;SDS011;9641;51.494;6.670;2022-11-20T06:25:56;22.53;;;13.70;;
19016;SDS011;9641;51.494;6.670;2022-11-20T06:28:23;24.30;;;14.57;;
19016;SDS011;9641;51.494;6.670;2022-11-20T06:30:50;27.50;;;13.30;;
19016;SDS011;9641;51.494;6.670;2022-11-20T06:33:16;31.13;;;15.67;;
19016;SDS011;9641;51.494;6.670;2022-11-20T06:35:43;28.33;;;14.63;;
19016;SDS011;9641;51.494;6.670;2022-11-20T06:38:10;28.43;;;14.53;;
19016;SDS011;9641;51.494;6.670;2022-11-20T06:40:39;33.67;;;15.73;;
19016;SDS011;9641;51.494;6.670;2022-11-20T06:43:08;27.83;;;15.60;;
19016;SDS011;9641;51.494;6.670;2022-11-20T06:45:34;27.10;;;14.50;;
19016;SDS011;9641;51.494;6.670;2022-11-20T06:48:02;29.30;;;15.87;;
19016;SDS011;9641;51.494;6.670;2022-11-20T06:50:29;27.50;;;14.57;;
19016;SDS011;9641;51.494;6.670;2022-11-20T06:52:56;29.60;;;14.90;;
19016;SDS011;9641;51.494;6.670;2022-11-20T06:55:27;32.00;;;15.60;;
19016;SDS011;9641;51.494;6.670;2022-11-20T06:57:54;26.23;;;14.30;;
19016;SDS011;9641;51.494;6.670;2022-11-20T07:00:22;25.23;;;14.93;;
19016;SDS011;9641;51.494;6.670;2022-11-20T07:02:49;26.20;;;13.57;;
19016;SDS011;9641;51.494;6.670;2022-11-20T07:05:16;27.20;;;15.63;;
19016;SDS011;9641;51.494;6.670;2022-11-20T07:07:43;24.77;;;14.37;;
19016;SDS011;9641;51.494;6.670;2022-11-20T07:10:09;32.43;;;14.53;;
19016;SDS011;9641;51.494;6.670;2022-11-20T07:12:36;27.10;;;15.03;;
19016;SDS011;9641;51.494;6.670;2022-11-20T07:15:04;28.83;;;15.17;;
19016;SDS011;9641;51.494;6.670;2022-11-20T07:17:33;28.47;;;14.40;;
19016;SDS011;9641;51.494;6.670;2022-11-20T07:19:59;24.93;;;13.60;;
19016;SDS011;9641;51.494;6.670;2022-11-20T07:22:26;24.13;;;13.53;;
19016;SDS011;9641;51.494;6.670;2022-11-20T07:24:53;27.10;;;13.77;;
19016;SDS011;9641;51.494;6.670;2022-11-20T07:27:20;26.57;;;14.07;;
19016;SDS011;9641;51.494;6.670;2022-11-20T07:29:47;23.83;;;13.83;;
19016;SDS011;9641;51.494;6.670;2022-11-20T07:32:14;24.27;;;13.97;;
19016;SDS011;9641;51.494;6.670;2022-11-20T07:34:42;29.40;;;15.30;;
19016;SDS011;9641;51.494;6.670;2022-11-20T07:37:09;29.17;;;14.90;;
19016;SDS011;9641;51.494;6.670;2022-11-20T07:39:35;29.77;;;16.67;;
19016;SDS011;9641;51.494;6.670;2022-11-20T07:42:02;29.53;;;15.33;;
19016;SDS011;9641;51.494;6.670;2022-11-20T07:44:29;27.53;;;14.43;;
19016;SDS011;9641;51.494;6.670;2022-11-20T07:46:56;29.77;;;15.93;;
19016;SDS011;9641;51.494;6.670;2022-11-20T07:49:22;33.10;;;17.00;;
19016;SDS011;9641;51.494;6.670;2022-11-20T07:51:55;31.67;;;17.03;;
19016;SDS011;9641;51.494;6.670;2022-11-20T07:54:23;40.33;;;22.90;;
19016;SDS011;9641;51.494;6.670;2022-11-20T07:56:49;30.50;;;17.37;;
19016;SDS011;9641;51.494;6.670;2022-11-20T07:59:16;32.80;;;16.77;;
19016;SDS011;9641;51.494;6.670;2022-11-20T08:01:43;30.77;;;16.63;;
19016;SDS011;9641;51.494;6.670;2022-11-20T08:04:10;28.87;;;15.87;;
19016;SDS011;9641;51.494;6.670;2022-11-20T08:06:37;27.60;;;15.23;;
19016;SDS011;9641;51.494;6.670;2022-11-20T08:09:21;41.37;;;16.87;;
19016;SDS011;9641;51.494;6.670;2022-11-20T08:11:48;24.67;;;16.03;;
19016;SDS011;9641;51.494;6.670;2022-11-20T08:14:32;38.10;;;17.53;;
19016;SDS011;9641;51.494;6.670;2022-11-20T08:16:59;32.63;;;15.97;;
19016;SDS011;9641;51.494;6.670;2022-11-20T08:19:25;32.37;;;17.47;;
19016;SDS011;9641;51.494;6.670;2022-11-20T08:21:53;34.33;;;17.87;;
19016;SDS011;9641;51.494;6.670;2022-11-20T08:24:22;31.50;;;16.30;;
19016;SDS011;9641;51.494;6.670;2022-11-20T08:26:49;38.03;;;18.37;;
19016;SDS011;9641;51.494;6.670;2022-11-20T08:29:18;35.97;;;18.60;;
19016;SDS011;9641;51.494;6.670;2022-11-20T08:31:45;32.27;;;17.47;;
19016;SDS011;9641;51.494;6.670;2022-11-20T08:34:12;35.63;;;18.90;;
19016;SDS011;9641;51.494;6.670;2022-11-20T08:36:39;37.57;;;17.40;;
19016;SDS011;9641;51.494;6.670;2022-11-20T08:39:06;33.33;;;18.27;;
19016;SDS011;9641;51.494;6.670;2022-11-20T08:41:34;29.43;;;16.40;;
19016;SDS011;9641;51.494;6.670;2022-11-20T08:44:03;34.70;;;17.87;;
19016;SDS011;9641;51.494;6.670;2022-11-20T08:46:32;37.17;;;17.53;;
19016;SDS011;9641;51.494;6.670;2022-11-20T08:49:01;30.17;;;16.73;;
19016;SDS011;9641;51.494;6.670;2022-11-20T08:51:28;31.83;;;17.13;;
19016;SDS011;9641;51.494;6.670;2022-11-20T08:53:55;31.80;;;17.33;;
19016;SDS011;9641;51.494;6.670;2022-11-20T08:56:21;38.37;;;16.43;;
19016;SDS011;9641;51.494;6.670;2022-11-20T08:58:50;33.47;;;17.23;;
19016;SDS011;9641;51.494;6.670;2022-11-20T09:01:17;33.50;;;18.67;;
19016;SDS011;9641;51.494;6.670;2022-11-20T09:03:45;33.47;;;17.83;;
19016;SDS011;9641;51.494;6.670;2022-11-20T09:06:12;38.87;;;19.50;;
19016;SDS011;9641;51.494;6.670;2022-11-20T09:08:39;42.83;;;24.60;;
19016;SDS011;9641;51.494;6.670;2022-11-20T09:11:06;53.93;;;28.67;;
19016;SDS011;9641;51.494;6.670;2022-11-20T09:13:34;47.20;;;24.33;;
19016;SDS011;9641;51.494;6.670;2022-11-20T09:16:04;45.00;;;22.50;;
19016;SDS011;9641;51.494;6.670;2022-11-20T09:18:33;38.40;;;21.47;;
19016;SDS011;9641;51.494;6.670;2022-11-20T09:21:02;39.43;;;21.20;;
19016;SDS011;9641;51.494;6.670;2022-11-20T09:23:31;39.00;;;21.70;;
19016;SDS011;9641;51.494;6.670;2022-11-20T09:26:01;41.37;;;21.60;;
19016;SDS011;9641;51.494;6.670;2022-11-20T09:28:29;38.53;;;20.30;;
19016;SDS011;9641;51.494;6.670;2022-11-20T09:30:56;37.80;;;20.83;;
19016;SDS011;9641;51.494;6.670;2022-11-20T09:33:24;38.37;;;21.23;;
19016;SDS011;9641;51.494;6.670;2022-11-20T09:35:51;38.63;;;20.03;;
19016;SDS011;9641;51.494;6.670;2022-11-20T09:38:18;38.30;;;19.97;;
19016;SDS011;9641;51.494;6.670;2022-11-20T09:40:46;38.53;;;20.07;;
19016;SDS011;9641;51.494;6.670;2022-11-20T09:43:23;36.60;;;19.93;;
19016;SDS011;9641;51.494;6.670;2022-11-20T09:46:01;37.33;;;20.93;;
19016;SDS011;9641;51.494;6.670;2022-11-20T09:48:55;43.47;;;21.60;;
19016;SDS011;9641;51.494;6.670;2022-11-20T09:51:42;43.17;;;20.33;;
19016;SDS011;9641;51.494;6.670;2022-11-20T09:54:19;35.73;;;21.43;;
19016;SDS011;9641;51.494;6.670;2022-11-20T09:56:48;41.67;;;21.83;;
19016;SDS011;9641;51.494;6.670;2022-11-20T09:59:23;33.13;;;17.80;;
19016;SDS011;9641;51.494;6.670;2022-11-20T10:01:56;31.13;;;16.23;;
19016;SDS011;9641;51.494;6.670;2022-11-20T10:04:27;28.93;;;16.70;;
19016;SDS011;9641;51.494;6.670;2022-11-20T10:07:01;26.40;;;15.00;;
19016;SDS011;9641;51.494;6.670;2022-11-20T10:09:34;27.70;;;15.17;;
19016;SDS011;9641;51.494;6.670;2022-11-20T10:12:05;29.40;;;16.13;;
19016;SDS011;9641;51.494;6.670;2022-11-20T10:14:44;24.03;;;13.97;;
19016;SDS011;9641;51.494;6.670;2022-11-20T10:17:24;26.70;;;14.80;;
19016;SDS011;9641;51.494;6.670;2022-11-20T10:20:07;26.60;;;14.17;;
19016;SDS011;9641;51.494;6.670;2022-11-20T10:22:46;26.67;;;14.90;;
19016;SDS011;9641;51.494;6.670;2022-11-20T10:25:23;25.23;;;14.57;;
19016;SDS011;9641;51.494;6.670;2022-11-20T10:30:48;25.83;;;13.97;;
19016;SDS011;9641;51.494;6.670;2022-11-20T10:33:27;26.17;;;14.77;;
19016;SDS011;9641;51.494;6.670;2022-11-20T10:36:01;24.97;;;13.00;;
19016;SDS011;9641;51.494;6.670;2022-11-20T10:38:35;27.23;;;13.67;;
19016;SDS011;9641;51.494;6.670;2022-11-20T10:41:06;21.97;;;13.87;;
19016;SDS011;9641;51.494;6.670;2022-11-20T10:43:52;25.53;;;13.70;;
19016;SDS011;9641;51.494;6.670;2022-11-20T10:46:26;26.70;;;14.83;;
19016;SDS011;9641;51.494;6.670;2022-11-20T10:48:59;27.47;;;14.33;;
19016;SDS011;9641;51.494;6.670;2022-11-20T10:51:33;25.60;;;14.53;;
19016;SDS011;9641;51.494;6.670;2022-11-20T10:54:06;23.70;;;14.13;;
19016;SDS011;9641;51.494;6.670;2022-11-20T10:56:45;27.90;;;15.20;;
19016;SDS011;9641;51.494;6.670;2022-11-20T10:59:27;29.93;;;15.33;;
19016;SDS011;9641;51.494;6.670;2022-11-20T11:02:14;26.73;;;14.23;;
19016;SDS011;9641;51.494;6.670;2022-11-20T11:04:42;33.43;;;15.83;;
19016;SDS011;9641;51.494;6.670;2022-11-20T11:07:15;29.30;;;15.47;;
19016;SDS011;9641;51.494;6.670;2022-11-20T11:09:47;29.33;;;15.40;;
19016;SDS011;9641;51.494;6.670;2022-11-20T11:12:15;29.17;;;15.40;;
19016;SDS011;9641;51.494;6.670;2022-11-20T11:14:46;30.50;;;16.93;;
19016;SDS011;9641;51.494;6.670;2022-11-20T11:17:19;32.20;;;16.23;;
19016;SDS011;9641;51.494;6.670;2022-11-20T11:19:58;37.03;;;17.50;;
19016;SDS011;9641;51.494;6.670;2022-11-20T11:22:33;33.70;;;17.77;;
19016;SDS011;9641;51.494;6.670;2022-11-20T11:25:13;36.87;;;17.50;;
19016;SDS011;9641;51.494;6.670;2022-11-20T11:27:50;33.67;;;16.50;;
19016;SDS011;9641;51.494;6.670;2022-11-20T11:30:20;33.17;;;16.10;;
19016;SDS011;9641;51.494;6.670;2022-11-20T11:32:47;33.43;;;16.77;;
19016;SDS011;9641;51.494;6.670;2022-11-20T11:35:21;35.40;;;18.87;;
19016;SDS011;9641;51.494;6.670;2022-11-20T11:37:51;30.43;;;16.33;;
19016;SDS011;9641;51.494;6.670;2022-11-20T11:40:21;33.73;;;16.37;;
19016;SDS011;9641;51.494;6.670;2022-11-20T11:42:56;37.43;;;17.53;;
19016;SDS011;9641;51.494;6.670;2022-11-20T11:45:25;34.50;;;16.30;;
19016;SDS011;9641;51.494;6.670;2022-11-20T11:47:52;38.60;;;16.47;;
19016;SDS011;9641;51.494;6.670;2022-11-20T11:50:21;31.87;;;15.93;;
19016;SDS011;9641;51.494;6.670;2022-11-20T11:52:58;30.20;;;16.33;;
19016;SDS011;9641;51.494;6.670;2022-11-20T11:55:31;29.00;;;15.57;;
19016;SDS011;9641;51.494;6.670;2022-11-20T12:00:56;27.17;;;14.67;;
19016;SDS011;9641;51.494;6.670;2022-11-20T12:03:27;38.93;;;15.07;;
19016;SDS011;9641;51.494;6.670;2022-11-20T12:06:01;33.00;;;14.27;;
19016;SDS011;9641;51.494;6.670;2022-11-20T12:08:41;33.43;;;15.27;;
19016;SDS011;9641;51.494;6.670;2022-11-20T12:11:11;27.30;;;13.83;;
19016;SDS011;9641;51.494;6.670;2022-11-20T12:13:44;33.53;;;15.60;;
19016;SDS011;9641;51.494;6.670;2022-11-20T12:16:17;32.13;;;15.70;;
19016;SDS011;9641;51.494;6.670;2022-11-20T12:18:45;31.47;;;16.10;;
19016;SDS011;9641;51.494;6.670;2022-11-20T12:21:19;32.27;;;14.77;;
19016;SDS011;9641;51.494;6.670;2022-11-20T12:23:57;33.27;;;16.27;;
19016;SDS011;9641;51.494;6.670;2022-11-20T12:26:37;28.77;;;15.33;;
19016;SDS011;9641;51.494;6.670;2022-11-20T12:29:13;28.67;;;15.00;;
19016;SDS011;9641;51.494;6.670;2022-11-20T12:31:52;35.73;;;16.83;;
19016;SDS011;9641;51.494;6.670;2022-11-20T12:34:33;34.37;;;16.30;;
19016;SDS011;9641;51.494;6.670;2022-11-20T12:37:11;31.07;;;16.33;;
19016;SDS011;9641;51.494;6.670;2022-11-20T12:39:48;29.57;;;14.37;;
19016;SDS011;9641;51.494;6.670;2022-11-20T12:42:28;32.23;;;15.60;;
19016;SDS011;9641;51.494;6.670;2022-11-20T12:45:32;29.90;;;14.87;;
19016;SDS011;9641;51.494;6.670;2022-11-20T12:48:24;28.80;;;13.70;;
19016;SDS011;9641;51.494;6.670;2022-11-20T12:51:05;31.73;;;16.37;;
19016;SDS011;9641;51.494;6.670;2022-11-20T12:53:45;32.67;;;16.53;;
19016;SDS011;9641;51.494;6.670;2022-11-20T12:56:25;31.50;;;15.43;;
19016;SDS011;9641;51.494;6.670;2022-11-20T12:59:08;30.87;;;14.47;;
19016;SDS011;9641;51.494;6.670;2022-11-20T13:01:50;30.73;;;14.10;;
19016;SDS011;9641;51.494;6.670;2022-11-20T13:04:24;33.93;;;15.40;;
19016;SDS011;9641;51.494;6.670;2022-11-20T13:07:05;32.07;;;14.37;;
19016;SDS011;9641;51.494;6.670;2022-11-20T13:09:40;25.87;;;13.80;;
19016;SDS011;9641;51.494;6.670;2022-11-20T13:14:58;27.17;;;14.43;;
19016;SDS011;9641;51.494;6.670;2022-11-20T13:17:30;28.77;;;14.80;;
19016;SDS011;9641;51.494;6.670;2022-11-20T13:20:00;32.67;;;14.60;;
19016;SDS011;9641;51.494;6.670;2022-11-20T13:22:42;36.93;;;16.87;;
19016;SDS011;9641;51.494;6.670;2022-11-20T13:25:21;31.90;;;14.63;;
19016;SDS011;9641;51.494;6.670;2022-11-20T13:27:51;27.40;;;14.00;;
19016;SDS011;9641;51.494;6.670;2022-11-20T13:30:20;36.83;;;15.50;;
19016;SDS011;9641;51.494;6.670;2022-11-20T13:32:49;32.10;;;15.33;;
19016;SDS011;9641;51.494;6.670;2022-11-20T13:35:25;31.07;;;14.33;;
19016;SDS011;9641;51.494;6.670;2022-11-20T13:38:02;36.00;;;17.17;;
19016;SDS011;9641;51.494;6.670;2022-11-20T13:40:31;34.13;;;15.73;;
19016;SDS011;9641;51.494;6.670;2022-11-20T13:43:17;35.47;;;14.93;;
19016;SDS011;9641;51.494;6.670;2022-11-20T13:45:57;32.50;;;14.60;;
19016;SDS011;9641;51.494;6.670;2022-11-20T13:48:26;31.07;;;15.27;;
19016;SDS011;9641;51.494;6.670;2022-11-20T13:51:04;34.87;;;15.80;;
19016;SDS011;9641;51.494;6.670;2022-11-20T13:56:40;36.73;;;15.30;;
19016;SDS011;9641;51.494;6.670;2022-11-20T13:59:23;34.83;;;15.43;;
19016;SDS011;9641;51.494;6.670;2022-11-20T14:01:59;31.60;;;15.53;;
19016;SDS011;9641;51.494;6.670;2022-11-20T14:04:28;33.10;;;15.30;;
19016;SDS011;9641;51.494;6.670;2022-11-20T14:06:59;33.93;;;15.40;;
19016;SDS011;9641;51.494;6.670;2022-11-20T14:09:26;34.67;;;15.53;;
19016;SDS011;9641;51.494;6.670;2022-11-20T14:11:54;30.00;;;14.77;;
19016;SDS011;9641;51.494;6.670;2022-11-20T14:14:23;31.80;;;14.93;;
19016;SDS011;9641;51.494;6.670;2022-11-20T14:16:52;30.60;;;15.97;;
19016;SDS011;9641;51.494;6.670;2022-11-20T14:19:30;37.00;;;15.73;;
19016;SDS011;9641;51.494;6.670;2022-11-20T14:22:07;31.77;;;15.37;;
19016;SDS011;9641;51.494;6.670;2022-11-20T14:24:43;29.50;;;14.33;;
19016;SDS011;9641;51.494;6.670;2022-11-20T14:27:15;33.27;;;15.07;;
19016;SDS011;9641;51.494;6.670;2022-11-20T14:29:46;30.33;;;14.07;;
19016;SDS011;9641;51.494;6.670;2022-11-20T14:32:15;31.77;;;15.17;;
19016;SDS011;9641;51.494;6.670;2022-11-20T14:34:43;32.60;;;14.90;;
19016;SDS011;9641;51.494;6.670;2022-11-20T14:37:17;32.90;;;14.57;;
19016;SDS011;9641;51.494;6.670;2022-11-20T14:39:50;29.70;;;14.47;;
19016;SDS011;9641;51.494;6.670;2022-11-20T14:42:19;33.77;;;15.10;;
19016;SDS011;9641;51.494;6.670;2022-11-20T14:44:49;30.63;;;14.73;;
19016;SDS011;9641;51.494;6.670;2022-11-20T14:47:17;36.07;;;16.50;;
19016;SDS011;9641;51.494;6.670;2022-11-20T14:49:47;34.10;;;15.37;;
19016;SDS011;9641;51.494;6.670;2022-11-20T14:52:17;30.77;;;15.63;;
19016;SDS011;9641;51.494;6.670;2022-11-20T14:54:46;32.77;;;15.77;;
19016;SDS011;9641;51.494;6.670;2022-11-20T14:57:21;38.90;;;18.07;;
19016;SDS011;9641;51.494;6.670;2022-11-20T15:00:02;38.50;;;17.50;;
19016;SDS011;9641;51.494;6.670;2022-11-20T15:02:31;47.90;;;20.07;;